sensor_id;sensor_type;location;lat;lon;timestamp;P1;durP1;ratioP1;P2;durP2;ratioP2
20462;SDS011;10390;53.566;9.980;2023-06-14T00:00:38;5.57;;;4.93;;
20462;SDS011;10390;53.566;9.980;2023-06-14T00:03:11;6.57;;;5.47;;
20462;SDS011;10390;53.566;9.980;2023-06-14T00:05:37;6.00;;;5.40;;
20462;SDS011;10390;53.566;9.980;2023-06-14T00:08:08;6.43;;;5.82;;
20462;SDS011;10390;53.566;9.980;2023-06-14T00:10:38;6.10;;;5.50;;
20462;SDS011;10390;53.566;9.980;2023-06-14T00:13:06;6.05;;;5.25;;
20462;SDS011;10390;53.566;9.980;2023-06-14T00:15:34;6.40;;;5.82;;
20462;SDS011;10390;53.566;9.980;2023-06-14T00:18:01;6.40;;;5.80;;
20462;SDS011;10390;53.566;9.980;2023-06-14T00:20:27;6.18;;;5.57;;
20462;SDS011;10390;53.566;9.980;2023-06-14T00:22:54;5.75;;;5.22;;
20462;SDS011;10390;53.566;9.980;2023-06-14T00:25:22;5.90;;;5.25;;
20462;SDS011;10390;53.566;9.980;2023-06-14T00:27:48;6.30;;;5.70;;
20462;SDS011;10390;53.566;9.980;2023-06-14T00:30:14;6.13;;;5.53;;
20462;SDS011;10390;53.566;9.980;2023-06-14T00:32:40;5.75;;;5.15;;
20462;SDS011;10390;53.566;9.980;2023-06-14T00:35:07;5.78;;;5.28;;
20462;SDS011;10390;53.566;9.980;2023-06-14T00:37:33;6.28;;;5.68;;
20462;SDS011;10390;53.566;9.980;2023-06-14T00:39:59;6.10;;;5.50;;
20462;SDS011;10390;53.566;9.980;2023-06-14T00:42:25;6.03;;;5.43;;
20462;SDS011;10390;53.566;9.980;2023-06-14T00:44:51;6.22;;;5.63;;
20462;SDS011;10390;53.566;9.980;2023-06-14T00:47:17;5.97;;;5.38;;
20462;SDS011;10390;53.566;9.980;2023-06-14T00:49:44;6.38;;;5.72;;
20462;SDS011;10390;53.566;9.980;2023-06-14T00:52:11;6.38;;;5.78;;
20462;SDS011;10390;53.566;9.980;2023-06-14T00:54:37;6.63;;;5.53;;
20462;SDS011;10390;53.566;9.980;2023-06-14T00:57:03;7.20;;;5.80;;
20462;SDS011;10390;53.566;9.980;2023-06-14T00:59:29;6.63;;;6.03;;
20462;SDS011;10390;53.566;9.980;2023-06-14T01:01:55;5.95;;;5.32;;
20462;SDS011;10390;53.566;9.980;2023-06-14T01:04:21;6.35;;;5.75;;
20462;SDS011;10390;53.566;9.980;2023-06-14T01:06:50;6.35;;;5.75;;
20462;SDS011;10390;53.566;9.980;2023-06-14T01:12:57;6.55;;;5.85;;
20462;SDS011;10390;53.566;9.980;2023-06-14T01:15:29;6.55;;;5.95;;
20462;SDS011;10390;53.566;9.980;2023-06-14T01:17:56;6.25;;;5.45;;
20462;SDS011;10390;53.566;9.980;2023-06-14T01:20:41;7.05;;;6.03;;
20462;SDS011;10390;53.566;9.980;2023-06-14T01:23:09;8.15;;;6.03;;
20462;SDS011;10390;53.566;9.980;2023-06-14T01:25:37;6.88;;;5.63;;
20462;SDS011;10390;53.566;9.980;2023-06-14T01:28:04;6.43;;;5.82;;
20462;SDS011;10390;53.566;9.980;2023-06-14T01:30:38;6.07;;;5.20;;
20462;SDS011;10390;53.566;9.980;2023-06-14T01:33:11;6.65;;;5.90;;
20462;SDS011;10390;53.566;9.980;2023-06-14T01:35:38;6.40;;;5.53;;
20462;SDS011;10390;53.566;9.980;2023-06-14T01:38:06;6.22;;;5.65;;
20462;SDS011;10390;53.566;9.980;2023-06-14T01:40:32;5.93;;;5.35;;
20462;SDS011;10390;53.566;9.980;2023-06-14T01:42:59;6.28;;;5.68;;
20462;SDS011;10390;53.566;9.980;2023-06-14T01:45:27;6.50;;;5.90;;
20462;SDS011;10390;53.566;9.980;2023-06-14T01:47:54;6.88;;;6.18;;
20462;SDS011;10390;53.566;9.980;2023-06-14T01:50:20;6.60;;;6.00;;
20462;SDS011;10390;53.566;9.980;2023-06-14T01:52:46;6.85;;;6.25;;
20462;SDS011;10390;53.566;9.980;2023-06-14T01:55:12;6.35;;;5.75;;
20462;SDS011;10390;53.566;9.980;2023-06-14T01:57:37;5.68;;;5.18;;
20462;SDS011;10390;53.566;9.980;2023-06-14T02:00:04;6.43;;;5.82;;
20462;SDS011;10390;53.566;9.980;2023-06-14T02:02:33;5.90;;;5.35;;
20462;SDS011;10390;53.566;9.980;2023-06-14T02:04:58;5.78;;;5.18;;
20462;SDS011;10390;53.566;9.980;2023-06-14T02:07:24;7.03;;;5.70;;
20462;SDS011;10390;53.566;9.980;2023-06-14T02:09:50;7.22;;;5.45;;
20462;SDS011;10390;53.566;9.980;2023-06-14T02:12:15;6.28;;;5.32;;
20462;SDS011;10390;53.566;9.980;2023-06-14T02:14:41;5.63;;;5.13;;
20462;SDS011;10390;53.566;9.980;2023-06-14T02:17:07;5.90;;;5.07;;
20462;SDS011;10390;53.566;9.980;2023-06-14T02:19:32;5.93;;;5.35;;
20462;SDS011;10390;53.566;9.980;2023-06-14T02:21:58;6.10;;;5.55;;
20462;SDS011;10390;53.566;9.980;2023-06-14T02:24:24;6.07;;;5.47;;
20462;SDS011;10390;53.566;9.980;2023-06-14T02:26:50;6.10;;;5.00;;
20462;SDS011;10390;53.566;9.980;2023-06-14T02:29:15;5.95;;;5.20;;
20462;SDS011;10390;53.566;9.980;2023-06-14T02:31:41;6.57;;;5.85;;
20462;SDS011;10390;53.566;9.980;2023-06-14T02:34:07;6.50;;;5.80;;
20462;SDS011;10390;53.566;9.980;2023-06-14T02:36:35;6.10;;;5.50;;
20462;SDS011;10390;53.566;9.980;2023-06-14T02:39:07;6.00;;;4.80;;
20462;SDS011;10390;53.566;9.980;2023-06-14T02:41:34;5.80;;;5.28;;
20462;SDS011;10390;53.566;9.980;2023-06-14T02:44:00;6.47;;;5.53;;
20462;SDS011;10390;53.566;9.980;2023-06-14T02:46:26;5.30;;;4.80;;
20462;SDS011;10390;53.566;9.980;2023-06-14T02:48:51;7.78;;;5.65;;
20462;SDS011;10390;53.566;9.980;2023-06-14T02:51:17;6.03;;;5.43;;
20462;SDS011;10390;53.566;9.980;2023-06-14T02:53:42;5.97;;;5.15;;
20462;SDS011;10390;53.566;9.980;2023-06-14T02:56:08;6.50;;;5.90;;
20462;SDS011;10390;53.566;9.980;2023-06-14T02:58:36;6.43;;;5.80;;
20462;SDS011;10390;53.566;9.980;2023-06-14T03:01:02;6.43;;;5.82;;
20462;SDS011;10390;53.566;9.980;2023-06-14T03:03:28;7.72;;;5.95;;
20462;SDS011;10390;53.566;9.980;2023-06-14T03:05:53;7.13;;;6.43;;
20462;SDS011;10390;53.566;9.980;2023-06-14T03:08:19;6.30;;;5.70;;
20462;SDS011;10390;53.566;9.980;2023-06-14T03:10:45;7.85;;;6.13;;
20462;SDS011;10390;53.566;9.980;2023-06-14T03:13:12;6.82;;;6.13;;
20462;SDS011;10390;53.566;9.980;2023-06-14T03:15:38;7.05;;;6.18;;
20462;SDS011;10390;53.566;9.980;2023-06-14T03:18:07;6.38;;;5.65;;
20462;SDS011;10390;53.566;9.980;2023-06-14T03:20:33;6.18;;;5.55;;
20462;SDS011;10390;53.566;9.980;2023-06-14T03:23:02;7.13;;;5.80;;
20462;SDS011;10390;53.566;9.980;2023-06-14T03:25:28;6.60;;;5.90;;
20462;SDS011;10390;53.566;9.980;2023-06-14T03:27:55;6.70;;;6.10;;
20462;SDS011;10390;53.566;9.980;2023-06-14T03:30:21;6.80;;;6.20;;
20462;SDS011;10390;53.566;9.980;2023-06-14T03:32:47;7.32;;;6.47;;
20462;SDS011;10390;53.566;9.980;2023-06-14T03:35:12;6.68;;;5.78;;
20462;SDS011;10390;53.566;9.980;2023-06-14T03:37:42;6.25;;;5.65;;
20462;SDS011;10390;53.566;9.980;2023-06-14T03:40:09;6.63;;;6.03;;
20462;SDS011;10390;53.566;9.980;2023-06-14T03:42:36;6.05;;;5.45;;
20462;SDS011;10390;53.566;9.980;2023-06-14T03:45:02;5.45;;;4.95;;
20462;SDS011;10390;53.566;9.980;2023-06-14T03:47:28;6.20;;;5.45;;
20462;SDS011;10390;53.566;9.980;2023-06-14T03:49:54;6.47;;;5.60;;
20462;SDS011;10390;53.566;9.980;2023-06-14T03:52:19;6.32;;;5.65;;
20462;SDS011;10390;53.566;9.980;2023-06-14T03:54:47;6.55;;;5.95;;
20462;SDS011;10390;53.566;9.980;2023-06-14T03:57:12;7.13;;;5.80;;
20462;SDS011;10390;53.566;9.980;2023-06-14T03:59:38;7.40;;;5.88;;
20462;SDS011;10390;53.566;9.980;2023-06-14T04:02:04;6.38;;;5.78;;
20462;SDS011;10390;53.566;9.980;2023-06-14T04:04:30;7.78;;;6.40;;
20462;SDS011;10390;53.566;9.980;2023-06-14T04:06:56;6.03;;;5.43;;
20462;SDS011;10390;53.566;9.980;2023-06-14T04:09:23;6.18;;;5.38;;
20462;SDS011;10390;53.566;9.980;2023-06-14T04:11:50;6.38;;;5.32;;
20462;SDS011;10390;53.566;9.980;2023-06-14T04:14:19;6.07;;;5.47;;
20462;SDS011;10390;53.566;9.980;2023-06-14T04:16:46;6.03;;;5.43;;
20462;SDS011;10390;53.566;9.980;2023-06-14T04:19:12;6.80;;;6.07;;
20462;SDS011;10390;53.566;9.980;2023-06-14T04:21:37;6.25;;;5.57;;
20462;SDS011;10390;53.566;9.980;2023-06-14T04:24:03;7.07;;;6.13;;
20462;SDS011;10390;53.566;9.980;2023-06-14T04:26:29;6.60;;;6.00;;
20462;SDS011;10390;53.566;9.980;2023-06-14T04:28:58;6.90;;;6.20;;
20462;SDS011;10390;53.566;9.980;2023-06-14T04:31:27;7.13;;;5.70;;
20462;SDS011;10390;53.566;9.980;2023-06-14T04:33:54;8.40;;;5.50;;
20462;SDS011;10390;53.566;9.980;2023-06-14T04:36:20;6.20;;;5.60;;
20462;SDS011;10390;53.566;9.980;2023-06-14T04:38:46;6.85;;;5.68;;
20462;SDS011;10390;53.566;9.980;2023-06-14T04:41:14;6.45;;;5.60;;
20462;SDS011;10390;53.566;9.980;2023-06-14T04:43:41;7.95;;;5.90;;
20462;SDS011;10390;53.566;9.980;2023-06-14T04:46:08;6.05;;;5.45;;
20462;SDS011;10390;53.566;9.980;2023-06-14T04:48:34;6.28;;;5.65;;
20462;SDS011;10390;53.566;9.980;2023-06-14T04:51:00;6.38;;;5.78;;
20462;SDS011;10390;53.566;9.980;2023-06-14T04:53:28;7.18;;;6.05;;
20462;SDS011;10390;53.566;9.980;2023-06-14T04:55:54;6.60;;;5.75;;
20462;SDS011;10390;53.566;9.980;2023-06-14T04:58:20;8.50;;;6.15;;
20462;SDS011;10390;53.566;9.980;2023-06-14T05:00:45;9.70;;;6.32;;
20462;SDS011;10390;53.566;9.980;2023-06-14T05:03:11;8.35;;;6.03;;
20462;SDS011;10390;53.566;9.980;2023-06-14T05:05:38;6.95;;;5.90;;
20462;SDS011;10390;53.566;9.980;2023-06-14T05:08:05;7.63;;;6.40;;
20462;SDS011;10390;53.566;9.980;2023-06-14T05:10:31;7.07;;;6.38;;
20462;SDS011;10390;53.566;9.980;2023-06-14T05:12:56;10.15;;;5.90;;
20462;SDS011;10390;53.566;9.980;2023-06-14T05:15:22;7.70;;;5.95;;
20462;SDS011;10390;53.566;9.980;2023-06-14T05:17:50;10.13;;;6.78;;
20462;SDS011;10390;53.566;9.980;2023-06-14T05:20:20;7.57;;;6.40;;
20462;SDS011;10390;53.566;9.980;2023-06-14T05:22:49;6.50;;;5.82;;
20462;SDS011;10390;53.566;9.980;2023-06-14T05:25:17;7.20;;;5.65;;
20462;SDS011;10390;53.566;9.980;2023-06-14T05:27:43;8.02;;;6.15;;
20462;SDS011;10390;53.566;9.980;2023-06-14T05:30:08;8.15;;;5.65;;
20462;SDS011;10390;53.566;9.980;2023-06-14T05:32:35;13.35;;;6.82;;
20462;SDS011;10390;53.566;9.980;2023-06-14T05:35:00;9.90;;;6.60;;
20462;SDS011;10390;53.566;9.980;2023-06-14T05:37:26;9.07;;;6.05;;
20462;SDS011;10390;53.566;9.980;2023-06-14T05:39:51;9.10;;;6.93;;
20462;SDS011;10390;53.566;9.980;2023-06-14T05:42:17;12.70;;;6.18;;
20462;SDS011;10390;53.566;9.980;2023-06-14T05:44:43;7.97;;;6.20;;
20462;SDS011;10390;53.566;9.980;2023-06-14T05:47:08;8.48;;;6.47;;
20462;SDS011;10390;53.566;9.980;2023-06-14T05:49:34;10.18;;;6.20;;
20462;SDS011;10390;53.566;9.980;2023-06-14T05:52:00;9.40;;;6.57;;
20462;SDS011;10390;53.566;9.980;2023-06-14T05:54:25;10.30;;;6.00;;
20462;SDS011;10390;53.566;9.980;2023-06-14T05:56:51;7.25;;;5.53;;
20462;SDS011;10390;53.566;9.980;2023-06-14T05:59:16;10.40;;;6.20;;
20462;SDS011;10390;53.566;9.980;2023-06-14T06:01:42;11.98;;;5.90;;
20462;SDS011;10390;53.566;9.980;2023-06-14T06:04:08;11.15;;;5.97;;
20462;SDS011;10390;53.566;9.980;2023-06-14T06:06:34;13.27;;;7.28;;
20462;SDS011;10390;53.566;9.980;2023-06-14T06:09:00;9.95;;;7.07;;
20462;SDS011;10390;53.566;9.980;2023-06-14T06:11:27;10.27;;;6.68;;
20462;SDS011;10390;53.566;9.980;2023-06-14T06:13:52;9.98;;;7.00;;
20462;SDS011;10390;53.566;9.980;2023-06-14T06:16:18;10.57;;;6.97;;
20462;SDS011;10390;53.566;9.980;2023-06-14T06:18:44;9.35;;;6.82;;
20462;SDS011;10390;53.566;9.980;2023-06-14T06:21:09;12.02;;;7.10;;
20462;SDS011;10390;53.566;9.980;2023-06-14T06:23:35;11.23;;;7.13;;
20462;SDS011;10390;53.566;9.980;2023-06-14T06:26:01;12.35;;;7.38;;
20462;SDS011;10390;53.566;9.980;2023-06-14T06:28:27;14.10;;;7.20;;
20462;SDS011;10390;53.566;9.980;2023-06-14T06:30:53;10.75;;;6.53;;
20462;SDS011;10390;53.566;9.980;2023-06-14T06:33:19;16.45;;;7.05;;
20462;SDS011;10390;53.566;9.980;2023-06-14T06:35:45;11.25;;;7.03;;
20462;SDS011;10390;53.566;9.980;2023-06-14T06:38:10;10.85;;;6.90;;
20462;SDS011;10390;53.566;9.980;2023-06-14T06:40:36;9.77;;;5.68;;
20462;SDS011;10390;53.566;9.980;2023-06-14T06:43:02;9.57;;;6.18;;
20462;SDS011;10390;53.566;9.980;2023-06-14T06:45:28;9.40;;;5.90;;
20462;SDS011;10390;53.566;9.980;2023-06-14T06:47:54;9.48;;;5.65;;
20462;SDS011;10390;53.566;9.980;2023-06-14T06:50:20;6.78;;;5.97;;
20462;SDS011;10390;53.566;9.980;2023-06-14T06:52:48;9.70;;;5.97;;
20462;SDS011;10390;53.566;9.980;2023-06-14T06:55:14;9.63;;;6.65;;
20462;SDS011;10390;53.566;9.980;2023-06-14T06:57:39;9.30;;;6.00;;
20462;SDS011;10390;53.566;9.980;2023-06-14T07:00:06;8.43;;;6.20;;
20462;SDS011;10390;53.566;9.980;2023-06-14T07:02:34;8.40;;;7.18;;
20462;SDS011;10390;53.566;9.980;2023-06-14T07:05:00;12.07;;;7.53;;
20462;SDS011;10390;53.566;9.980;2023-06-14T07:07:25;11.07;;;9.23;;
20462;SDS011;10390;53.566;9.980;2023-06-14T07:09:51;10.63;;;9.48;;
20462;SDS011;10390;53.566;9.980;2023-06-14T07:12:17;11.93;;;9.80;;
20462;SDS011;10390;53.566;9.980;2023-06-14T07:14:43;9.77;;;8.80;;
20462;SDS011;10390;53.566;9.980;2023-06-14T07:17:09;14.68;;;8.40;;
20462;SDS011;10390;53.566;9.980;2023-06-14T07:19:34;9.15;;;8.25;;
20462;SDS011;10390;53.566;9.980;2023-06-14T07:22:00;9.15;;;7.97;;
20462;SDS011;10390;53.566;9.980;2023-06-14T07:24:25;10.80;;;7.88;;
20462;SDS011;10390;53.566;9.980;2023-06-14T07:26:53;8.27;;;7.15;;
20462;SDS011;10390;53.566;9.980;2023-06-14T07:29:19;9.80;;;7.13;;
20462;SDS011;10390;53.566;9.980;2023-06-14T07:31:46;7.90;;;7.10;;
20462;SDS011;10390;53.566;9.980;2023-06-14T07:34:12;9.45;;;7.30;;
20462;SDS011;10390;53.566;9.980;2023-06-14T07:36:38;9.57;;;7.38;;
20462;SDS011;10390;53.566;9.980;2023-06-14T07:39:03;8.05;;;7.35;;
20462;SDS011;10390;53.566;9.980;2023-06-14T07:41:31;8.25;;;7.22;;
20462;SDS011;10390;53.566;9.980;2023-06-14T07:43:57;13.45;;;9.23;;
20462;SDS011;10390;53.566;9.980;2023-06-14T07:46:22;10.48;;;9.02;;
20462;SDS011;10390;53.566;9.980;2023-06-14T07:48:48;13.70;;;9.43;;
20462;SDS011;10390;53.566;9.980;2023-06-14T07:51:14;13.80;;;8.95;;
20462;SDS011;10390;53.566;9.980;2023-06-14T07:53:39;12.80;;;9.60;;
20462;SDS011;10390;53.566;9.980;2023-06-14T07:56:06;13.20;;;9.32;;
20462;SDS011;10390;53.566;9.980;2023-06-14T07:58:31;13.45;;;8.25;;
20462;SDS011;10390;53.566;9.980;2023-06-14T08:00:57;12.60;;;9.18;;
20462;SDS011;10390;53.566;9.980;2023-06-14T08:03:23;9.98;;;8.35;;
20462;SDS011;10390;53.566;9.980;2023-06-14T08:05:49;9.98;;;7.75;;
20462;SDS011;10390;53.566;9.980;2023-06-14T08:08:15;10.70;;;8.40;;
20462;SDS011;10390;53.566;9.980;2023-06-14T08:10:41;10.50;;;8.38;;
20462;SDS011;10390;53.566;9.980;2023-06-14T08:13:07;11.98;;;8.93;;
20462;SDS011;10390;53.566;9.980;2023-06-14T08:15:34;13.75;;;9.05;;
20462;SDS011;10390;53.566;9.980;2023-06-14T08:17:59;14.05;;;10.18;;
20462;SDS011;10390;53.566;9.980;2023-06-14T08:20:26;10.13;;;8.90;;
20462;SDS011;10390;53.566;9.980;2023-06-14T08:22:51;12.13;;;9.13;;
20462;SDS011;10390;53.566;9.980;2023-06-14T08:25:20;10.45;;;8.57;;
20462;SDS011;10390;53.566;9.980;2023-06-14T08:27:46;9.10;;;8.00;;
20462;SDS011;10390;53.566;9.980;2023-06-14T08:30:11;7.53;;;6.78;;
20462;SDS011;10390;53.566;9.980;2023-06-14T08:32:38;7.70;;;7.00;;
20462;SDS011;10390;53.566;9.980;2023-06-14T08:35:03;8.07;;;7.07;;
20462;SDS011;10390;53.566;9.980;2023-06-14T08:37:30;8.77;;;7.22;;
20462;SDS011;10390;53.566;9.980;2023-06-14T08:40:03;8.55;;;7.80;;
20462;SDS011;10390;53.566;9.980;2023-06-14T08:42:31;7.60;;;6.90;;
20462;SDS011;10390;53.566;9.980;2023-06-14T08:44:58;7.68;;;6.85;;
20462;SDS011;10390;53.566;9.980;2023-06-14T08:47:25;17.25;;;6.65;;
20462;SDS011;10390;53.566;9.980;2023-06-14T08:49:54;9.00;;;6.95;;
20462;SDS011;10390;53.566;9.980;2023-06-14T08:52:22;8.05;;;7.25;;
20462;SDS011;10390;53.566;9.980;2023-06-14T08:54:58;7.78;;;6.60;;
20462;SDS011;10390;53.566;9.980;2023-06-14T08:57:25;9.35;;;7.45;;
20462;SDS011;10390;53.566;9.980;2023-06-14T08:59:55;8.30;;;7.60;;
20462;SDS011;10390;53.566;9.980;2023-06-14T09:02:22;8.43;;;7.60;;
20462;SDS011;10390;53.566;9.980;2023-06-14T09:04:47;7.90;;;7.10;;
20462;SDS011;10390;53.566;9.980;2023-06-14T09:07:14;7.90;;;7.20;;
20462;SDS011;10390;53.566;9.980;2023-06-14T09:09:40;7.70;;;7.00;;
20462;SDS011;10390;53.566;9.980;2023-06-14T09:12:12;8.05;;;7.25;;
20462;SDS011;10390;53.566;9.980;2023-06-14T09:14:38;7.97;;;7.18;;
20462;SDS011;10390;53.566;9.980;2023-06-14T09:17:06;8.10;;;7.28;;
20462;SDS011;10390;53.566;9.980;2023-06-14T09:19:32;8.52;;;7.78;;
20462;SDS011;10390;53.566;9.980;2023-06-14T09:21:59;8.07;;;7.28;;
20462;SDS011;10390;53.566;9.980;2023-06-14T09:24:25;8.30;;;7.22;;
20462;SDS011;10390;53.566;9.980;2023-06-14T09:26:51;8.00;;;7.20;;
20462;SDS011;10390;53.566;9.980;2023-06-14T09:29:21;10.75;;;7.13;;
20462;SDS011;10390;53.566;9.980;2023-06-14T09:31:47;7.75;;;6.88;;
20462;SDS011;10390;53.566;9.980;2023-06-14T09:34:13;9.98;;;7.25;;
20462;SDS011;10390;53.566;9.980;2023-06-14T09:36:41;7.57;;;6.85;;
20462;SDS011;10390;53.566;9.980;2023-06-14T09:39:07;7.53;;;6.20;;
20462;SDS011;10390;53.566;9.980;2023-06-14T09:41:34;7.68;;;6.97;;
20462;SDS011;10390;53.566;9.980;2023-06-14T09:44:00;8.45;;;7.32;;
20462;SDS011;10390;53.566;9.980;2023-06-14T09:46:27;8.73;;;7.93;;
20462;SDS011;10390;53.566;9.980;2023-06-14T09:48:54;10.38;;;8.55;;
20462;SDS011;10390;53.566;9.980;2023-06-14T09:51:22;8.85;;;8.05;;
20462;SDS011;10390;53.566;9.980;2023-06-14T09:53:51;7.93;;;7.20;;
20462;SDS011;10390;53.566;9.980;2023-06-14T09:56:27;10.15;;;6.28;;
20462;SDS011;10390;53.566;9.980;2023-06-14T09:58:55;8.30;;;6.95;;
20462;SDS011;10390;53.566;9.980;2023-06-14T10:01:22;7.90;;;7.10;;
20462;SDS011;10390;53.566;9.980;2023-06-14T10:04:11;7.80;;;6.70;;
20462;SDS011;10390;53.566;9.980;2023-06-14T10:06:39;7.35;;;6.63;;
20462;SDS011;10390;53.566;9.980;2023-06-14T10:09:09;7.85;;;7.07;;
20462;SDS011;10390;53.566;9.980;2023-06-14T10:11:35;7.85;;;7.05;;
20462;SDS011;10390;53.566;9.980;2023-06-14T10:14:04;6.93;;;6.07;;
20462;SDS011;10390;53.566;9.980;2023-06-14T10:16:42;7.05;;;6.30;;
20462;SDS011;10390;53.566;9.980;2023-06-14T10:22:12;7.88;;;7.18;;
20462;SDS011;10390;53.566;9.980;2023-06-14T10:24:43;7.43;;;6.70;;
20462;SDS011;10390;53.566;9.980;2023-06-14T10:27:13;7.10;;;6.40;;
20462;SDS011;10390;53.566;9.980;2023-06-14T10:32:21;7.30;;;6.60;;
20462;SDS011;10390;53.566;9.980;2023-06-14T10:37:31;6.88;;;6.28;;
20462;SDS011;10390;53.566;9.980;2023-06-14T10:39:57;8.07;;;6.93;;
20462;SDS011;10390;53.566;9.980;2023-06-14T10:42:27;7.90;;;7.10;;
20462;SDS011;10390;53.566;9.980;2023-06-14T10:44:56;7.20;;;6.60;;
20462;SDS011;10390;53.566;9.980;2023-06-14T10:47:28;6.97;;;6.28;;
20462;SDS011;10390;53.566;9.980;2023-06-14T10:50:10;8.32;;;7.45;;
20462;SDS011;10390;53.566;9.980;2023-06-14T10:52:38;7.45;;;6.75;;
20462;SDS011;10390;53.566;9.980;2023-06-14T10:57:40;7.40;;;6.70;;
20462;SDS011;10390;53.566;9.980;2023-06-14T11:00:06;7.95;;;7.20;;
20462;SDS011;10390;53.566;9.980;2023-06-14T11:03:28;6.78;;;6.18;;
20462;SDS011;10390;53.566;9.980;2023-06-14T11:05:56;7.45;;;6.60;;
20462;SDS011;10390;53.566;9.980;2023-06-14T11:10:57;8.02;;;7.22;;
20462;SDS011;10390;53.566;9.980;2023-06-14T11:13:25;8.48;;;7.50;;
20462;SDS011;10390;53.566;9.980;2023-06-14T11:15:51;7.90;;;7.10;;
20462;SDS011;10390;53.566;9.980;2023-06-14T11:18:22;7.70;;;7.00;;
20462;SDS011;10390;53.566;9.980;2023-06-14T11:20:52;7.78;;;6.97;;
20462;SDS011;10390;53.566;9.980;2023-06-14T11:23:18;7.82;;;6.78;;
20462;SDS011;10390;53.566;9.980;2023-06-14T11:25:49;8.73;;;6.82;;
20462;SDS011;10390;53.566;9.980;2023-06-14T11:28:16;8.07;;;7.25;;
20462;SDS011;10390;53.566;9.980;2023-06-14T11:30:41;7.38;;;6.68;;
20462;SDS011;10390;53.566;9.980;2023-06-14T11:33:09;8.50;;;7.72;;
20462;SDS011;10390;53.566;9.980;2023-06-14T11:35:36;7.85;;;7.10;;
20462;SDS011;10390;53.566;9.980;2023-06-14T11:38:01;7.95;;;7.25;;
20462;SDS011;10390;53.566;9.980;2023-06-14T11:40:27;9.73;;;7.47;;
20462;SDS011;10390;53.566;9.980;2023-06-14T11:43:00;7.50;;;6.60;;
20462;SDS011;10390;53.566;9.980;2023-06-14T11:45:26;7.85;;;7.15;;
20462;SDS011;10390;53.566;9.980;2023-06-14T11:47:54;7.82;;;7.07;;
20462;SDS011;10390;53.566;9.980;2023-06-14T11:50:21;8.63;;;7.82;;
20462;SDS011;10390;53.566;9.980;2023-06-14T11:52:56;7.85;;;7.15;;
20462;SDS011;10390;53.566;9.980;2023-06-14T11:55:32;8.80;;;7.70;;
20462;SDS011;10390;53.566;9.980;2023-06-14T11:58:05;8.95;;;7.85;;
20462;SDS011;10390;53.566;9.980;2023-06-14T12:00:31;8.68;;;7.50;;
20462;SDS011;10390;53.566;9.980;2023-06-14T12:02:57;8.82;;;7.03;;
20462;SDS011;10390;53.566;9.980;2023-06-14T12:05:23;7.90;;;7.20;;
20462;SDS011;10390;53.566;9.980;2023-06-14T12:07:57;8.50;;;7.70;;
20462;SDS011;10390;53.566;9.980;2023-06-14T12:10:25;7.53;;;6.82;;
20462;SDS011;10390;53.566;9.980;2023-06-14T12:12:51;8.00;;;7.20;;
20462;SDS011;10390;53.566;9.980;2023-06-14T12:15:21;8.93;;;7.35;;
20462;SDS011;10390;53.566;9.980;2023-06-14T12:17:47;8.40;;;7.53;;
20462;SDS011;10390;53.566;9.980;2023-06-14T12:20:13;8.00;;;7.28;;
20462;SDS011;10390;53.566;9.980;2023-06-14T12:22:50;7.88;;;7.18;;
20462;SDS011;10390;53.566;9.980;2023-06-14T12:25:26;8.05;;;7.25;;
20462;SDS011;10390;53.566;9.980;2023-06-14T12:27:57;8.32;;;7.07;;
20462;SDS011;10390;53.566;9.980;2023-06-14T12:30:23;7.63;;;6.82;;
20462;SDS011;10390;53.566;9.980;2023-06-14T12:32:49;8.73;;;7.85;;
20462;SDS011;10390;53.566;9.980;2023-06-14T12:35:16;8.02;;;7.25;;
20462;SDS011;10390;53.566;9.980;2023-06-14T12:37:44;8.60;;;7.68;;
20462;SDS011;10390;53.566;9.980;2023-06-14T12:40:11;8.82;;;7.30;;
20462;SDS011;10390;53.566;9.980;2023-06-14T12:42:37;9.25;;;7.72;;
20462;SDS011;10390;53.566;9.980;2023-06-14T12:45:03;8.98;;;8.18;;
20462;SDS011;10390;53.566;9.980;2023-06-14T12:47:29;9.23;;;6.72;;
20462;SDS011;10390;53.566;9.980;2023-06-14T12:49:54;9.50;;;8.70;;
20462;SDS011;10390;53.566;9.980;2023-06-14T12:52:20;9.02;;;8.23;;
20462;SDS011;10390;53.566;9.980;2023-06-14T12:54:46;9.32;;;8.43;;
20462;SDS011;10390;53.566;9.980;2023-06-14T12:57:12;8.70;;;8.00;;
20462;SDS011;10390;53.566;9.980;2023-06-14T12:59:37;9.45;;;8.20;;
20462;SDS011;10390;53.566;9.980;2023-06-14T13:04:38;7.43;;;6.72;;
20462;SDS011;10390;53.566;9.980;2023-06-14T13:07:04;8.30;;;7.50;;
20462;SDS011;10390;53.566;9.980;2023-06-14T13:09:30;9.73;;;7.60;;
20462;SDS011;10390;53.566;9.980;2023-06-14T13:11:56;7.55;;;6.85;;
20462;SDS011;10390;53.566;9.980;2023-06-14T13:14:22;7.47;;;6.80;;
20462;SDS011;10390;53.566;9.980;2023-06-14T13:16:47;8.10;;;7.32;;
20462;SDS011;10390;53.566;9.980;2023-06-14T13:19:13;8.05;;;7.25;;
20462;SDS011;10390;53.566;9.980;2023-06-14T13:21:39;7.82;;;7.03;;
20462;SDS011;10390;53.566;9.980;2023-06-14T13:24:04;7.50;;;6.88;;
20462;SDS011;10390;53.566;9.980;2023-06-14T13:26:30;7.97;;;7.18;;
20462;SDS011;10390;53.566;9.980;2023-06-14T13:28:57;7.53;;;6.82;;
20462;SDS011;10390;53.566;9.980;2023-06-14T13:31:23;8.60;;;7.22;;
20462;SDS011;10390;53.566;9.980;2023-06-14T13:33:48;7.55;;;6.85;;
20462;SDS011;10390;53.566;9.980;2023-06-14T13:36:14;8.63;;;6.93;;
20462;SDS011;10390;53.566;9.980;2023-06-14T13:38:40;8.10;;;7.30;;
20462;SDS011;10390;53.566;9.980;2023-06-14T13:41:05;8.02;;;7.15;;
20462;SDS011;10390;53.566;9.980;2023-06-14T13:43:31;8.32;;;7.35;;
20462;SDS011;10390;53.566;9.980;2023-06-14T13:45:56;8.10;;;7.40;;
20462;SDS011;10390;53.566;9.980;2023-06-14T13:48:22;7.85;;;7.15;;
20462;SDS011;10390;53.566;9.980;2023-06-14T13:50:48;8.10;;;7.10;;
20462;SDS011;10390;53.566;9.980;2023-06-14T13:53:14;7.82;;;7.10;;
20462;SDS011;10390;53.566;9.980;2023-06-14T13:55:40;8.90;;;6.60;;
20462;SDS011;10390;53.566;9.980;2023-06-14T13:58:05;7.53;;;6.82;;
20462;SDS011;10390;53.566;9.980;2023-06-14T14:00:31;7.00;;;6.40;;
20462;SDS011;10390;53.566;9.980;2023-06-14T14:02:57;9.45;;;6.63;;
20462;SDS011;10390;53.566;9.980;2023-06-14T14:05:25;7.63;;;6.88;;
20462;SDS011;10390;53.566;9.980;2023-06-14T14:07:54;7.07;;;6.25;;
20462;SDS011;10390;53.566;9.980;2023-06-14T14:10:21;7.40;;;6.80;;
20462;SDS011;10390;53.566;9.980;2023-06-14T14:12:48;9.95;;;6.85;;
20462;SDS011;10390;53.566;9.980;2023-06-14T14:15:14;7.32;;;6.63;;
20462;SDS011;10390;53.566;9.980;2023-06-14T14:17:40;8.02;;;6.97;;
20462;SDS011;10390;53.566;9.980;2023-06-14T14:20:06;10.32;;;6.43;;
20462;SDS011;10390;53.566;9.980;2023-06-14T14:22:33;7.45;;;5.78;;
20462;SDS011;10390;53.566;9.980;2023-06-14T14:24:58;7.95;;;6.07;;
20462;SDS011;10390;53.566;9.980;2023-06-14T14:27:24;7.38;;;6.28;;
20462;SDS011;10390;53.566;9.980;2023-06-14T14:29:49;6.40;;;5.80;;
20462;SDS011;10390;53.566;9.980;2023-06-14T14:32:15;7.13;;;6.10;;
20462;SDS011;10390;53.566;9.980;2023-06-14T14:34:41;6.93;;;6.22;;
20462;SDS011;10390;53.566;9.980;2023-06-14T14:37:06;9.55;;;6.05;;
20462;SDS011;10390;53.566;9.980;2023-06-14T14:39:32;7.05;;;6.35;;
20462;SDS011;10390;53.566;9.980;2023-06-14T14:41:58;7.75;;;6.95;;
20462;SDS011;10390;53.566;9.980;2023-06-14T14:44:23;8.70;;;6.15;;
20462;SDS011;10390;53.566;9.980;2023-06-14T14:46:49;7.32;;;6.63;;
20462;SDS011;10390;53.566;9.980;2023-06-14T14:49:14;7.35;;;5.97;;
20462;SDS011;10390;53.566;9.980;2023-06-14T14:51:40;8.98;;;6.40;;
20462;SDS011;10390;53.566;9.980;2023-06-14T14:54:06;7.80;;;7.10;;
20462;SDS011;10390;53.566;9.980;2023-06-14T14:56:31;7.00;;;6.40;;
20462;SDS011;10390;53.566;9.980;2023-06-14T14:58:57;8.52;;;6.53;;
20462;SDS011;10390;53.566;9.980;2023-06-14T15:01:23;7.32;;;5.68;;
20462;SDS011;10390;53.566;9.980;2023-06-14T15:03:48;7.97;;;7.28;;